createdAt,value
2022-11-08T00:01:57.079Z,96.49
2022-11-08T00:04:15.262Z,96.66
2022-11-08T00:06:32.353Z,96.33
2022-11-08T00:08:49.452Z,96.33
2022-11-08T00:11:06.766Z,96.41
2022-11-08T00:13:24.884Z,96.66
2022-11-08T00:15:42.027Z,96.72
2022-11-08T00:17:59.200Z,96.74
2022-11-08T00:20:16.223Z,96.38
2022-11-08T00:22:33.376Z,96.98
2022-11-08T00:24:50.368Z,97.00
2022-11-08T00:27:07.383Z,96.80
2022-11-08T00:29:25.410Z,96.70
2022-11-08T00:31:42.461Z,96.44
2022-11-08T00:33:59.917Z,97.14
2022-11-08T00:36:16.904Z,96.66
2022-11-08T00:38:34.210Z,97.05
2022-11-08T00:40:51.537Z,97.37
2022-11-08T00:43:08.672Z,97.26
2022-11-08T00:45:25.751Z,96.63
2022-11-08T00:47:43.948Z,97.41
2022-11-08T00:50:02.098Z,96.04
2022-11-08T00:52:19.087Z,96.26
2022-11-08T00:54:36.996Z,96.43
2022-11-08T00:56:54.173Z,96.94
2022-11-08T00:59:16.076Z,96.21
2022-11-08T01:01:34.042Z,96.07
2022-11-08T01:03:51.188Z,96.52
2022-11-08T01:06:08.431Z,96.27
2022-11-08T01:08:26.767Z,96.82
2022-11-08T01:10:43.875Z,96.08
2022-11-08T01:13:02.592Z,96.18
2022-11-08T01:15:21.139Z,95.97
2022-11-08T01:17:39.188Z,97.00
2022-11-08T01:19:56.662Z,97.27
2022-11-08T01:22:13.649Z,96.62
2022-11-08T01:24:30.827Z,97.48
2022-11-08T01:26:48.729Z,97.04
2022-11-08T01:29:05.787Z,96.49
2022-11-08T01:31:23.155Z,95.95
2022-11-08T01:33:48.464Z,96.91
2022-11-08T01:36:08.641Z,96.77
2022-11-08T01:38:28.831Z,96.13
2022-11-08T01:40:48.588Z,96.95
2022-11-08T01:43:07.155Z,96.41
2022-11-08T01:45:24.180Z,95.83
2022-11-08T01:47:41.089Z,95.96
2022-11-08T01:49:58.519Z,96.57
2022-11-08T01:52:15.580Z,96.67
2022-11-08T01:54:32.723Z,96.24
2022-11-08T01:56:50.080Z,96.46
2022-11-08T01:59:07.490Z,97.42
2022-11-08T02:01:24.773Z,96.23
2022-11-08T02:03:41.901Z,96.91
2022-11-08T02:06:00.046Z,97.26
2022-11-08T02:08:17.642Z,96.51
2022-11-08T02:10:35.190Z,97.59
2022-11-08T02:12:52.514Z,97.62
2022-11-08T02:15:09.861Z,97.33
2022-11-08T02:17:27.193Z,97.58
2022-11-08T02:19:45.081Z,97.39
2022-11-08T02:22:02.418Z,97.65
2022-11-08T02:24:19.783Z,97.63
2022-11-08T02:26:37.712Z,98.35
2022-11-08T02:28:54.658Z,97.22
2022-11-08T02:31:11.950Z,97.97
2022-11-08T02:33:31.275Z,98.00
2022-11-08T02:35:48.311Z,97.03
2022-11-08T02:38:05.363Z,98.17
2022-11-08T02:40:24.705Z,97.77
2022-11-08T02:42:41.957Z,97.82
2022-11-08T02:44:59.210Z,97.74
2022-11-08T02:47:16.123Z,97.66
2022-11-08T02:49:33.457Z,98.31
2022-11-08T02:51:50.828Z,98.35
2022-11-08T02:54:08.867Z,98.26
2022-11-08T02:56:26.084Z,97.83
2022-11-08T02:58:44.105Z,97.84
2022-11-08T03:01:01.212Z,98.65
2022-11-08T03:03:20.289Z,98.26
2022-11-08T03:05:37.215Z,98.36
2022-11-08T03:07:54.655Z,98.67
2022-11-08T03:10:11.783Z,98.29
2022-11-08T03:12:28.974Z,98.34
2022-11-08T03:14:48.126Z,98.27
2022-11-08T03:17:05.197Z,98.62
2022-11-08T03:19:24.459Z,98.75
2022-11-08T03:21:41.592Z,98.71
2022-11-08T03:23:58.645Z,98.41
2022-11-08T03:26:15.674Z,99.33
2022-11-08T03:28:34.209Z,99.18
2022-11-08T03:30:51.256Z,99.35
2022-11-08T03:33:09.298Z,99.13
2022-11-08T03:35:26.587Z,98.88
2022-11-08T03:37:44.668Z,98.71
2022-11-08T03:40:01.919Z,98.97
2022-11-08T03:42:19.196Z,99.77
2022-11-08T03:44:38.861Z,99.43
2022-11-08T03:46:55.883Z,99.15
2022-11-08T03:49:12.978Z,99.50
2022-11-08T03:51:30.009Z,99.94
2022-11-08T03:53:48.995Z,99.80
2022-11-08T03:56:06.287Z,99.78
2022-11-08T03:58:23.523Z,99.88
2022-11-08T04:00:40.860Z,99.76
2022-11-08T04:02:58.221Z,99.90
2022-11-08T04:05:15.161Z,99.82
2022-11-08T04:07:34.905Z,98.64
2022-11-08T04:09:51.886Z,99.73
2022-11-08T04:12:10.484Z,98.81
2022-11-08T04:14:27.369Z,100.00
2022-11-08T04:16:44.693Z,99.33
2022-11-08T04:19:02.660Z,99.76
2022-11-08T04:21:19.593Z,99.85
2022-11-08T04:23:36.532Z,99.08
2022-11-08T04:25:53.625Z,99.98
2022-11-08T04:28:11.539Z,98.49
2022-11-08T04:30:28.999Z,99.88
2022-11-08T04:32:46.297Z,99.81
2022-11-08T04:35:04.257Z,99.55
2022-11-08T04:37:21.293Z,98.71
2022-11-08T04:39:39.636Z,98.87
2022-11-08T04:42:01.876Z,99.63
2022-11-08T04:44:19.783Z,99.27
2022-11-08T04:46:37.113Z,99.44
2022-11-08T04:48:55.378Z,98.89
2022-11-08T04:51:13.617Z,98.27
2022-11-08T04:53:30.918Z,98.25
2022-11-08T04:55:48.096Z,98.55
2022-11-08T04:58:05.096Z,98.05
2022-11-08T05:00:22.168Z,98.24
2022-11-08T05:02:39.330Z,98.92
2022-11-08T05:04:56.705Z,99.11
2022-11-08T05:07:13.628Z,99.10
2022-11-08T05:09:31.918Z,98.09
2022-11-08T05:11:48.925Z,98.31
2022-11-08T05:14:06.223Z,98.79
2022-11-08T05:16:24.237Z,98.89
2022-11-08T05:18:42.104Z,99.22
2022-11-08T05:20:59.589Z,98.25
2022-11-08T05:23:16.652Z,97.69
2022-11-08T05:25:33.984Z,98.60
2022-11-08T05:27:51.066Z,98.84
2022-11-08T05:30:08.301Z,98.65
2022-11-08T05:32:25.556Z,98.11
2022-11-08T05:34:42.552Z,98.49
2022-11-08T05:37:02.625Z,98.06
2022-11-08T05:39:19.944Z,97.85
2022-11-08T05:41:38.217Z,97.58
2022-11-08T05:43:55.535Z,97.89
2022-11-08T05:46:12.770Z,98.41
2022-11-08T05:48:30.024Z,98.46
2022-11-08T05:50:47.297Z,98.02
2022-11-08T05:53:04.252Z,97.57
2022-11-08T05:55:21.196Z,98.11
2022-11-08T05:57:38.135Z,97.40
2022-11-08T05:59:55.182Z,97.87
2022-11-08T06:02:12.207Z,98.10
2022-11-08T06:04:29.593Z,98.44
2022-11-08T06:06:47.906Z,97.77
2022-11-08T06:09:05.163Z,97.81
2022-11-08T06:11:22.450Z,98.47
2022-11-08T06:13:39.774Z,97.50
2022-11-08T06:15:57.044Z,98.57
2022-11-08T06:18:14.305Z,97.92
2022-11-08T06:20:31.373Z,98.16
2022-11-08T06:22:48.639Z,98.19
2022-11-08T06:25:05.652Z,97.59
2022-11-08T06:27:22.714Z,97.08
2022-11-08T06:29:39.766Z,96.90
2022-11-08T06:31:57.084Z,98.18
2022-11-08T06:34:14.307Z,97.63
2022-11-08T06:36:31.339Z,96.71
2022-11-08T06:38:48.279Z,97.27
2022-11-08T06:41:05.497Z,97.16
2022-11-08T06:43:24.017Z,96.90
2022-11-08T06:45:41.513Z,96.75
2022-11-08T06:47:58.831Z,96.09
2022-11-08T06:50:16.771Z,96.05
2022-11-08T06:52:33.723Z,96.17
2022-11-08T06:54:51.070Z,95.91
2022-11-08T06:57:07.931Z,95.83
2022-11-08T06:59:26.209Z,96.17
2022-11-08T07:01:45.816Z,95.48
2022-11-08T07:04:03.361Z,96.12
2022-11-08T07:06:20.862Z,95.77
2022-11-08T07:08:37.783Z,96.70
2022-11-08T07:10:54.759Z,96.38
2022-11-08T07:13:11.782Z,95.46
2022-11-08T07:15:29.061Z,96.23
2022-11-08T07:17:45.980Z,95.39
2022-11-08T07:20:03.314Z,95.65
2022-11-08T07:22:20.327Z,95.09
2022-11-08T07:24:37.254Z,95.52
2022-11-08T07:26:55.618Z,96.21
2022-11-08T07:29:15.921Z,95.36
2022-11-08T07:31:33.583Z,95.43
2022-11-08T07:33:50.562Z,95.54
2022-11-08T07:36:07.857Z,95.09
2022-11-08T07:38:25.050Z,95.31
2022-11-08T07:40:42.247Z,95.31
2022-11-08T07:43:15.482Z,95.82
2022-11-08T07:45:32.473Z,95.94
2022-11-08T07:47:50.261Z,95.05
2022-11-08T07:50:08.775Z,95.72
2022-11-08T07:52:25.758Z,94.80
2022-11-08T07:54:42.685Z,94.43
2022-11-08T07:57:01.031Z,95.46
2022-11-08T07:59:18.061Z,95.54
2022-11-08T08:01:35.981Z,95.07
2022-11-08T08:03:53.062Z,95.07
2022-11-08T08:06:10.298Z,95.53
2022-11-08T08:08:27.320Z,95.87
2022-11-08T08:10:44.372Z,95.23
2022-11-08T08:13:01.324Z,94.98
2022-11-08T08:15:18.305Z,95.26
2022-11-08T08:17:35.245Z,96.05
2022-11-08T08:19:53.509Z,95.81
2022-11-08T08:22:10.724Z,96.05
2022-11-08T08:24:27.853Z,95.31
2022-11-08T08:26:46.089Z,95.73
2022-11-08T08:29:03.401Z,95.85
2022-11-08T08:31:20.667Z,94.82
2022-11-08T08:33:38.080Z,95.86
2022-11-08T08:35:55.633Z,95.72
2022-11-08T08:38:13.629Z,95.68
2022-11-08T08:40:30.706Z,95.84
2022-11-08T08:42:48.545Z,95.14
2022-11-08T08:45:05.613Z,95.28
2022-11-08T08:47:24.175Z,95.32
2022-11-08T08:49:41.175Z,95.61
2022-11-08T08:51:58.190Z,95.45
2022-11-08T08:54:15.446Z,94.35
2022-11-08T08:56:33.484Z,95.27
2022-11-08T09:03:52.057Z,93.77
2022-11-08T09:06:09.352Z,93.74
2022-11-08T09:08:26.532Z,94.66
2022-11-08T09:10:43.511Z,93.51
2022-11-08T09:13:00.553Z,94.30
2022-11-08T09:15:18.456Z,92.83
2022-11-08T09:17:35.693Z,93.18
2022-11-08T09:19:56.941Z,94.01
2022-11-08T09:22:14.396Z,92.50
2022-11-08T09:24:31.448Z,94.13
2022-11-08T09:26:48.470Z,93.81
2022-11-08T09:29:05.342Z,92.35
2022-11-08T09:31:22.345Z,93.76
2022-11-08T09:33:40.340Z,92.46
2022-11-08T09:35:57.315Z,93.48
2022-11-08T09:38:14.444Z,93.55
2022-11-08T09:40:31.876Z,93.87
2022-11-08T09:42:49.136Z,93.55
2022-11-08T09:45:06.362Z,92.21
2022-11-08T09:47:23.284Z,93.15
2022-11-08T09:49:40.230Z,92.98
2022-11-08T09:51:57.470Z,93.01
2022-11-08T09:54:18.503Z,92.64
2022-11-08T09:56:36.496Z,92.29
2022-11-08T09:58:53.484Z,91.90
2022-11-08T10:01:10.741Z,92.94
2022-11-08T10:03:30.078Z,92.28
2022-11-08T10:05:47.202Z,92.15
2022-11-08T10:08:04.443Z,92.44
2022-11-08T10:10:23.930Z,92.91
2022-11-08T10:12:41.906Z,94.30
2022-11-08T10:14:58.884Z,93.76
2022-11-08T10:17:16.131Z,92.65
2022-11-08T10:19:34.137Z,92.39
2022-11-08T10:21:52.452Z,92.27
2022-11-08T10:24:09.687Z,92.66
2022-11-08T10:26:28.443Z,91.17
2022-11-08T10:28:45.392Z,92.02
2022-11-08T10:31:02.396Z,90.98
2022-11-08T10:33:19.799Z,91.65
2022-11-08T10:35:38.367Z,91.66
2022-11-08T10:37:56.305Z,90.72
2022-11-08T10:40:13.321Z,91.14
2022-11-08T10:42:30.512Z,91.30
2022-11-08T10:44:48.474Z,90.58
2022-11-08T10:47:05.424Z,90.27
2022-11-08T10:49:22.678Z,90.58
2022-11-08T10:51:39.697Z,90.38
2022-11-08T10:53:56.833Z,90.25
2022-11-08T10:56:15.166Z,90.37
2022-11-08T10:58:33.240Z,90.45
2022-11-08T11:00:50.471Z,90.48
2022-11-08T11:03:07.417Z,90.00
2022-11-08T11:05:24.306Z,90.33
2022-11-08T11:07:41.216Z,89.67
2022-11-08T11:09:58.472Z,89.84
2022-11-08T11:12:16.646Z,88.96
2022-11-08T11:14:33.565Z,87.65
2022-11-08T11:16:50.641Z,88.81
2022-11-08T11:19:07.522Z,86.89
2022-11-08T11:21:24.559Z,86.33
2022-11-08T11:23:41.624Z,86.08
2022-11-08T11:25:58.583Z,86.93
2022-11-08T11:28:15.781Z,86.14
2022-11-08T11:30:33.036Z,85.34
2022-11-08T11:32:50.011Z,86.88
2022-11-08T11:35:07.127Z,85.36
2022-11-08T11:37:25.039Z,86.09
2022-11-08T11:39:42.277Z,84.35
2022-11-08T11:42:05.304Z,84.65
2022-11-08T11:44:29.796Z,83.76
2022-11-08T11:46:47.035Z,83.53
2022-11-08T11:49:04.036Z,83.37
2022-11-08T11:51:22.139Z,82.36
2022-11-08T11:53:40.902Z,83.55
2022-11-08T11:55:59.813Z,82.29
2022-11-08T11:58:17.024Z,83.03
2022-11-08T12:00:34.114Z,83.88
2022-11-08T12:02:51.062Z,83.47
2022-11-08T12:05:08.231Z,83.69
2022-11-08T12:07:25.257Z,81.26
2022-11-08T12:09:42.255Z,80.68
2022-11-08T12:12:00.469Z,78.93
2022-11-08T12:14:17.484Z,79.07
2022-11-08T12:16:34.686Z,78.73
2022-11-08T12:18:52.141Z,77.93
2022-11-08T12:21:09.367Z,76.43
2022-11-08T12:23:26.574Z,76.05
2022-11-08T12:25:43.579Z,76.94
2022-11-08T12:28:00.497Z,78.43
2022-11-08T12:30:19.039Z,78.36
2022-11-08T12:32:35.949Z,76.76
2022-11-08T12:34:53.171Z,76.02
2022-11-08T12:37:10.188Z,75.53
2022-11-08T12:39:27.230Z,73.16
2022-11-08T12:41:45.144Z,69.89
2022-11-08T12:44:02.152Z,70.22
2022-11-08T12:46:20.344Z,69.30
2022-11-08T12:48:37.291Z,69.66
2022-11-08T12:50:58.943Z,67.47
2022-11-08T12:53:18.381Z,66.37
2022-11-08T12:55:35.591Z,65.38
2022-11-08T12:57:52.866Z,66.42
2022-11-08T13:00:10.165Z,65.86
2022-11-08T13:02:27.154Z,65.95
2022-11-08T13:04:44.152Z,66.99
2022-11-08T13:07:01.587Z,66.43
2022-11-08T13:09:18.521Z,66.90
2022-11-08T13:11:35.543Z,66.09
2022-11-08T13:13:52.514Z,66.00
2022-11-08T13:16:09.431Z,66.10
2022-11-08T13:18:26.452Z,66.95
2022-11-08T13:20:43.427Z,67.24
2022-11-08T13:23:01.697Z,67.71
2022-11-08T13:25:18.626Z,66.23
2022-11-08T13:27:35.887Z,70.33
2022-11-08T13:29:52.882Z,68.90
2022-11-08T13:32:09.855Z,69.25
2022-11-08T13:34:27.309Z,69.20
2022-11-08T13:36:44.213Z,69.30
2022-11-08T13:39:02.351Z,69.77
2022-11-08T13:41:19.610Z,72.40
2022-11-08T13:43:36.643Z,71.55
2022-11-08T13:45:53.697Z,71.91
2022-11-08T13:48:13.590Z,69.75
2022-11-08T13:50:31.608Z,70.04
2022-11-08T13:52:48.639Z,70.06
2022-11-08T13:55:05.848Z,70.07
2022-11-08T13:57:23.161Z,68.16
2022-11-08T13:59:40.198Z,68.59
2022-11-08T14:01:57.282Z,68.42
2022-11-08T14:04:14.532Z,67.83
2022-11-08T14:06:31.735Z,66.97
2022-11-08T14:08:48.766Z,67.50
2022-11-08T14:11:05.818Z,67.10
2022-11-08T14:13:22.744Z,67.73
2022-11-08T14:15:39.947Z,67.43
2022-11-08T14:17:57.186Z,68.34
2022-11-08T14:20:14.170Z,69.11
2022-11-08T14:22:31.427Z,71.10
2022-11-08T14:24:48.748Z,72.58
2022-11-08T14:27:05.668Z,72.18
2022-11-08T14:29:22.621Z,72.92
2022-11-08T14:31:39.617Z,73.86
2022-11-08T14:33:56.553Z,75.40
2022-11-08T14:36:13.536Z,76.38
2022-11-08T14:38:30.778Z,76.83
2022-11-08T14:40:48.757Z,77.25
2022-11-08T14:43:06.770Z,77.41
2022-11-08T14:45:26.041Z,77.74
2022-11-08T14:47:43.288Z,78.67
2022-11-08T14:50:01.501Z,79.92
2022-11-08T14:52:19.748Z,81.19
2022-11-08T14:54:38.025Z,82.02
2022-11-08T14:56:55.266Z,81.51
2022-11-08T14:59:12.540Z,81.81
2022-11-08T15:01:29.633Z,82.50
2022-11-08T15:03:47.037Z,82.81
2022-11-08T15:06:03.968Z,83.51
2022-11-08T15:08:21.139Z,83.13
2022-11-08T15:10:38.461Z,82.46
2022-11-08T15:12:55.505Z,83.43
2022-11-08T15:15:12.749Z,83.60
2022-11-08T15:17:29.735Z,84.00
2022-11-08T15:19:46.969Z,83.74
2022-11-08T15:22:04.005Z,84.74
2022-11-08T15:24:21.242Z,83.96
2022-11-08T15:26:38.278Z,86.25
2022-11-08T15:28:55.516Z,84.65
2022-11-08T15:31:12.751Z,86.50
2022-11-08T15:33:29.784Z,86.91
2022-11-08T15:35:46.745Z,86.17
2022-11-08T15:38:03.778Z,85.96
2022-11-08T15:40:21.830Z,87.10
2022-11-08T15:42:43.332Z,88.79
2022-11-08T15:45:01.609Z,88.00
2022-11-08T15:47:18.627Z,88.51
2022-11-08T15:49:35.950Z,89.51
2022-11-08T15:51:53.183Z,89.19
2022-11-08T15:54:10.210Z,87.96
2022-11-08T15:56:27.248Z,89.85
2022-11-08T15:58:44.167Z,89.58
2022-11-08T16:01:01.521Z,89.14
2022-11-08T16:03:18.588Z,89.84
2022-11-08T16:05:35.489Z,90.59
2022-11-08T16:07:52.733Z,89.83
2022-11-08T16:10:09.966Z,89.82
2022-11-08T16:12:27.001Z,90.48
2022-11-08T16:14:44.230Z,90.48
2022-11-08T16:17:01.210Z,91.58
2022-11-08T16:19:18.131Z,91.04
2022-11-08T16:21:35.358Z,90.87
2022-11-08T16:23:52.357Z,90.96
2022-11-08T16:26:09.247Z,92.21
2022-11-08T16:28:26.342Z,91.62
2022-11-08T16:30:44.336Z,91.26
2022-11-08T16:33:01.700Z,91.84
2022-11-08T16:35:18.888Z,90.56
2022-11-08T16:37:35.893Z,90.24
2022-11-08T16:39:52.954Z,90.49
2022-11-08T16:42:09.871Z,91.06
2022-11-08T16:44:27.126Z,90.39
2022-11-08T16:46:44.043Z,91.64
2022-11-08T16:49:01.086Z,90.81
2022-11-08T16:51:18.051Z,90.90
2022-11-08T16:53:35.388Z,90.87
2022-11-08T16:55:52.699Z,91.14
2022-11-08T16:58:09.719Z,91.20
2022-11-08T17:00:26.759Z,91.11
2022-11-08T17:02:43.749Z,90.69
2022-11-08T17:05:01.745Z,91.02
2022-11-08T17:07:18.821Z,91.27
2022-11-08T17:09:35.905Z,91.08
2022-11-08T17:11:53.114Z,92.03
2022-11-08T17:14:10.344Z,91.75
2022-11-08T17:16:27.371Z,92.00
2022-11-08T17:18:47.435Z,92.39
2022-11-08T17:21:23.228Z,92.64
2022-11-08T17:23:43.771Z,93.14
2022-11-08T17:26:01.080Z,92.84
2022-11-08T17:28:18.376Z,93.39
2022-11-08T17:30:35.879Z,93.43
2022-11-08T17:32:52.894Z,93.83
2022-11-08T17:35:09.964Z,93.39
2022-11-08T17:37:26.988Z,93.82
2022-11-08T17:39:45.162Z,93.17
2022-11-08T17:42:02.227Z,93.33
2022-11-08T17:44:19.428Z,93.42
2022-11-08T17:46:37.396Z,93.61
2022-11-08T17:48:54.612Z,93.32
2022-11-08T17:51:11.874Z,93.50
2022-11-08T17:53:28.808Z,94.20
2022-11-08T17:55:46.042Z,93.82
2022-11-08T17:58:03.111Z,93.93
2022-11-08T18:00:20.056Z,93.95
2022-11-08T18:02:37.848Z,94.11
2022-11-08T18:04:54.916Z,94.07
2022-11-08T18:07:11.988Z,94.07
2022-11-08T18:09:29.093Z,93.64
2022-11-08T18:11:46.128Z,93.68
2022-11-08T18:14:03.157Z,94.22
2022-11-08T18:16:21.390Z,93.73
2022-11-08T18:18:38.396Z,94.11
2022-11-08T18:20:55.645Z,94.04
2022-11-08T18:23:12.600Z,94.29
2022-11-08T18:25:29.832Z,94.36
2022-11-08T18:27:47.153Z,93.92
2022-11-08T18:30:04.079Z,94.57
2022-11-08T18:32:21.113Z,94.23
2022-11-08T18:34:38.376Z,94.22
2022-11-08T18:36:55.415Z,94.21
2022-11-08T18:39:18.154Z,94.22
2022-11-08T18:41:36.666Z,93.25
2022-11-08T18:43:56.663Z,93.49
2022-11-08T18:46:14.940Z,93.79
2022-11-08T18:48:32.976Z,94.02
2022-11-08T18:50:50.217Z,92.97
2022-11-08T18:53:07.805Z,93.78
2022-11-08T18:55:26.302Z,93.47
2022-11-08T18:57:43.423Z,92.55
2022-11-08T19:00:01.748Z,92.31
2022-11-08T19:02:19.216Z,93.47
2022-11-08T19:04:36.605Z,92.99
2022-11-08T19:06:54.937Z,93.95
2022-11-08T19:09:12.137Z,93.61
2022-11-08T19:11:29.469Z,93.84
2022-11-08T19:13:46.493Z,94.14
2022-11-08T19:16:03.756Z,93.77
2022-11-08T19:18:20.954Z,94.50
2022-11-08T19:20:39.017Z,94.64
2022-11-08T19:22:55.993Z,95.16
2022-11-08T19:25:12.979Z,93.89
2022-11-08T19:27:30.025Z,94.13
2022-11-08T19:29:47.031Z,94.30
2022-11-08T19:32:04.479Z,94.94
2022-11-08T19:34:21.502Z,94.78
2022-11-08T19:36:38.754Z,94.29
2022-11-08T19:38:56.996Z,94.60
2022-11-08T19:41:13.952Z,95.12
2022-11-08T19:43:30.988Z,94.74
2022-11-08T19:45:51.695Z,94.79
2022-11-08T19:48:08.817Z,95.05
2022-11-08T19:50:25.771Z,94.47
2022-11-08T19:52:42.720Z,95.36
2022-11-08T19:54:59.992Z,95.76
2022-11-08T19:57:18.028Z,95.56
2022-11-08T19:59:35.037Z,95.92
2022-11-08T20:01:52.149Z,95.41
2022-11-08T20:04:09.729Z,96.02
2022-11-08T20:06:26.776Z,95.80
2022-11-08T20:08:44.072Z,96.06
2022-11-08T20:11:01.297Z,94.94
2022-11-08T20:13:18.205Z,96.00
2022-11-08T20:15:35.142Z,95.99
2022-11-08T20:17:52.483Z,96.20
2022-11-08T20:20:09.532Z,96.38
2022-11-08T20:22:26.396Z,95.17
2022-11-08T20:24:43.385Z,96.02
2022-11-08T20:27:00.440Z,95.00
2022-11-08T20:29:18.501Z,95.54
2022-11-08T20:31:35.532Z,96.45
2022-11-08T20:33:53.141Z,95.59
2022-11-08T20:36:10.583Z,96.25
2022-11-08T20:38:28.200Z,96.19
2022-11-08T20:40:45.252Z,96.41
2022-11-08T20:43:02.780Z,96.60
2022-11-08T20:45:19.670Z,96.91
2022-11-08T20:47:36.605Z,96.36
2022-11-08T20:49:53.579Z,96.91
2022-11-08T20:52:10.465Z,96.37
2022-11-08T20:54:27.383Z,96.13
2022-11-08T20:56:44.308Z,95.65
2022-11-08T20:59:02.232Z,96.68
2022-11-08T21:01:19.245Z,96.63
2022-11-08T21:03:37.246Z,96.26
2022-11-08T21:05:54.162Z,96.78
2022-11-08T21:10:48.497Z,96.12
2022-11-08T21:13:05.836Z,97.06
2022-11-08T21:15:27.023Z,97.15
2022-11-08T21:17:45.218Z,96.61
2022-11-08T21:20:02.474Z,96.62
2022-11-08T21:22:19.439Z,96.93
2022-11-08T21:24:36.715Z,97.43
2022-11-08T21:26:53.805Z,97.06
2022-11-08T21:29:10.884Z,97.15
2022-11-08T21:31:27.945Z,96.57
2022-11-08T21:33:44.842Z,97.63
2022-11-08T21:36:03.128Z,97.00
2022-11-08T21:38:20.420Z,97.45
2022-11-08T21:40:39.062Z,97.66
2022-11-08T21:42:57.076Z,97.75
2022-11-08T21:45:13.966Z,97.81
2022-11-08T21:47:31.129Z,96.94
2022-11-08T21:49:48.338Z,97.41
2022-11-08T21:52:05.333Z,96.65
2022-11-08T21:54:22.255Z,95.92
2022-11-08T21:56:40.473Z,96.33
2022-11-08T21:58:57.544Z,94.79
2022-11-08T22:01:14.918Z,95.48
2022-11-08T22:03:32.242Z,95.46
2022-11-08T22:05:49.152Z,96.69
2022-11-08T22:08:06.147Z,96.74
2022-11-08T22:10:23.236Z,96.44
2022-11-08T22:12:40.680Z,98.05
2022-11-08T22:14:59.796Z,97.81
2022-11-08T22:17:17.140Z,96.99
2022-11-08T22:19:35.387Z,97.46
2022-11-08T22:21:52.550Z,98.32
2022-11-08T22:24:09.961Z,98.34
2022-11-08T22:26:28.421Z,98.09
2022-11-08T22:28:45.736Z,97.44
2022-11-08T22:31:02.829Z,98.61
2022-11-08T22:33:19.740Z,98.59
2022-11-08T22:35:37.196Z,98.64
2022-11-08T22:37:54.604Z,98.17
2022-11-08T22:40:12.509Z,98.12
2022-11-08T22:42:31.065Z,98.50
2022-11-08T22:44:48.069Z,98.99
2022-11-08T22:47:05.424Z,98.78
2022-11-08T22:49:22.881Z,98.62
2022-11-08T22:51:40.044Z,98.51
2022-11-08T22:53:57.186Z,97.91
2022-11-08T22:56:15.279Z,98.81
2022-11-08T22:58:32.449Z,98.54
2022-11-08T23:00:50.026Z,98.55
2022-11-08T23:03:08.135Z,98.54
2022-11-08T23:05:26.466Z,98.70
2022-11-08T23:07:43.908Z,98.76
2022-11-08T23:10:01.192Z,99.18
2022-11-08T23:12:18.244Z,98.59
2022-11-08T23:14:37.480Z,98.79
2022-11-08T23:16:54.897Z,98.74
2022-11-08T23:19:13.435Z,98.85
2022-11-08T23:21:31.648Z,98.95
2022-11-08T23:23:48.727Z,99.13
2022-11-08T23:26:05.869Z,98.49
2022-11-08T23:28:22.800Z,99.25
2022-11-08T23:30:42.708Z,99.57
2022-11-08T23:33:00.050Z,98.89
2022-11-08T23:35:18.561Z,98.88
2022-11-08T23:37:35.469Z,100.00
2022-11-08T23:39:52.770Z,99.85
2022-11-08T23:42:09.909Z,99.85
2022-11-08T23:44:26.914Z,100.00
2022-11-08T23:46:44.327Z,100.00
2022-11-08T23:49:02.276Z,100.00
2022-11-08T23:51:19.395Z,99.79
2022-11-08T23:53:36.478Z,100.00
2022-11-08T23:55:53.664Z,99.08
2022-11-08T23:58:11.771Z,99.79
